Alexandria, Ohio
Current Conditions -  °F | °C
As of 1:54 PM on Tuesday 21 Oct 2014 (Local Time) from KVTA Reporting Station
Light Rain Light Rain  
Wind Chill: 50°   Ceiling: 1900
Heat Index: 50°   Visibility: 9mi
Dew Point: 46°   Wind: 9mph
Humidity: 86%   Direction: 320°NW
Pressure: 29.97"   Gusts: NA
Location:  40.09°N, 82.61°W
Report Text: KVTA 211754Z AUTO 32008KT 9SM -RA BKN019 OVC026 10/08 A2997 RMK AO2 RAB31 SLP152 P0001 60002 T01000078 10111 20100 51007
Loading
Personal Weather Stations






























Interactive Weather Map New forecast layout! Learn more

10-Day Weather Forecast

Advertisements
Track Severe Weather on mobile